sensor_id;sensor_type;location;lat;lon;timestamp;P1;durP1;ratioP1;P2;durP2;ratioP2
19679;SDS011;9989;48.962;9.182;2023-08-06T00:02:23;7.13;;;3.20;;
19679;SDS011;9989;48.962;9.182;2023-08-06T00:04:49;8.43;;;3.70;;
19679;SDS011;9989;48.962;9.182;2023-08-06T00:07:14;6.53;;;3.57;;
19679;SDS011;9989;48.962;9.182;2023-08-06T00:09:40;6.90;;;3.50;;
19679;SDS011;9989;48.962;9.182;2023-08-06T00:12:06;8.70;;;3.63;;
19679;SDS011;9989;48.962;9.182;2023-08-06T00:14:32;7.13;;;3.67;;
19679;SDS011;9989;48.962;9.182;2023-08-06T00:16:57;7.07;;;3.77;;
19679;SDS011;9989;48.962;9.182;2023-08-06T00:19:23;7.67;;;3.67;;
19679;SDS011;9989;48.962;9.182;2023-08-06T00:21:49;8.57;;;3.40;;
19679;SDS011;9989;48.962;9.182;2023-08-06T00:24:14;8.13;;;4.07;;
19679;SDS011;9989;48.962;9.182;2023-08-06T00:26:40;8.23;;;3.10;;
19679;SDS011;9989;48.962;9.182;2023-08-06T00:29:06;7.33;;;3.53;;
19679;SDS011;9989;48.962;9.182;2023-08-06T00:31:31;7.90;;;3.40;;
19679;SDS011;9989;48.962;9.182;2023-08-06T00:33:57;6.40;;;3.30;;
19679;SDS011;9989;48.962;9.182;2023-08-06T00:36:23;7.13;;;3.40;;
19679;SDS011;9989;48.962;9.182;2023-08-06T00:38:48;6.37;;;3.17;;
19679;SDS011;9989;48.962;9.182;2023-08-06T00:41:14;6.90;;;3.37;;
19679;SDS011;9989;48.962;9.182;2023-08-06T00:43:40;7.00;;;3.40;;
19679;SDS011;9989;48.962;9.182;2023-08-06T00:46:06;6.60;;;3.50;;
19679;SDS011;9989;48.962;9.182;2023-08-06T00:48:32;8.50;;;3.67;;
19679;SDS011;9989;48.962;9.182;2023-08-06T00:50:58;6.77;;;3.47;;
19679;SDS011;9989;48.962;9.182;2023-08-06T00:53:25;7.63;;;3.57;;
19679;SDS011;9989;48.962;9.182;2023-08-06T00:55:50;7.77;;;3.40;;
19679;SDS011;9989;48.962;9.182;2023-08-06T00:58:17;8.13;;;3.10;;
19679;SDS011;9989;48.962;9.182;2023-08-06T01:00:43;7.80;;;3.53;;
19679;SDS011;9989;48.962;9.182;2023-08-06T01:03:09;6.57;;;3.30;;
19679;SDS011;9989;48.962;9.182;2023-08-06T01:05:34;7.73;;;3.37;;
19679;SDS011;9989;48.962;9.182;2023-08-06T01:10:57;6.47;;;3.47;;
19679;SDS011;9989;48.962;9.182;2023-08-06T01:13:45;6.13;;;3.13;;
19679;SDS011;9989;48.962;9.182;2023-08-06T01:16:18;5.80;;;2.90;;
19679;SDS011;9989;48.962;9.182;2023-08-06T01:18:46;5.97;;;2.80;;
19679;SDS011;9989;48.962;9.182;2023-08-06T01:21:14;6.47;;;3.10;;
19679;SDS011;9989;48.962;9.182;2023-08-06T01:23:41;6.40;;;3.10;;
19679;SDS011;9989;48.962;9.182;2023-08-06T01:26:13;7.40;;;3.60;;
19679;SDS011;9989;48.962;9.182;2023-08-06T01:28:48;6.67;;;3.33;;
19679;SDS011;9989;48.962;9.182;2023-08-06T01:31:32;7.47;;;3.57;;
19679;SDS011;9989;48.962;9.182;2023-08-06T01:34:03;6.83;;;3.07;;
19679;SDS011;9989;48.962;9.182;2023-08-06T01:36:32;7.83;;;3.27;;
19679;SDS011;9989;48.962;9.182;2023-08-06T01:38:58;6.50;;;3.47;;
19679;SDS011;9989;48.962;9.182;2023-08-06T01:41:24;7.13;;;3.13;;
19679;SDS011;9989;48.962;9.182;2023-08-06T01:43:50;6.97;;;3.57;;
19679;SDS011;9989;48.962;9.182;2023-08-06T01:46:16;7.00;;;3.17;;
19679;SDS011;9989;48.962;9.182;2023-08-06T01:48:42;6.57;;;3.10;;
19679;SDS011;9989;48.962;9.182;2023-08-06T01:51:08;5.90;;;3.00;;
19679;SDS011;9989;48.962;9.182;2023-08-06T01:53:34;6.73;;;3.33;;
19679;SDS011;9989;48.962;9.182;2023-08-06T01:55:59;9.27;;;3.80;;
19679;SDS011;9989;48.962;9.182;2023-08-06T01:58:26;7.10;;;3.80;;
19679;SDS011;9989;48.962;9.182;2023-08-06T02:00:52;6.57;;;3.30;;
19679;SDS011;9989;48.962;9.182;2023-08-06T02:03:17;6.90;;;3.47;;
19679;SDS011;9989;48.962;9.182;2023-08-06T02:05:43;9.77;;;4.10;;
19679;SDS011;9989;48.962;9.182;2023-08-06T02:08:09;7.63;;;3.73;;
19679;SDS011;9989;48.962;9.182;2023-08-06T02:10:34;8.90;;;3.80;;
19679;SDS011;9989;48.962;9.182;2023-08-06T02:13:00;7.73;;;3.30;;
19679;SDS011;9989;48.962;9.182;2023-08-06T02:15:26;7.27;;;3.67;;
19679;SDS011;9989;48.962;9.182;2023-08-06T02:17:51;8.97;;;3.57;;
19679;SDS011;9989;48.962;9.182;2023-08-06T02:20:17;9.17;;;3.13;;
19679;SDS011;9989;48.962;9.182;2023-08-06T02:22:43;7.83;;;3.80;;
19679;SDS011;9989;48.962;9.182;2023-08-06T02:25:08;9.83;;;3.83;;
19679;SDS011;9989;48.962;9.182;2023-08-06T02:27:34;11.53;;;4.00;;
19679;SDS011;9989;48.962;9.182;2023-08-06T02:30:00;7.27;;;3.97;;
19679;SDS011;9989;48.962;9.182;2023-08-06T02:32:25;7.43;;;3.83;;
19679;SDS011;9989;48.962;9.182;2023-08-06T02:34:51;8.00;;;4.23;;
19679;SDS011;9989;48.962;9.182;2023-08-06T02:37:17;8.83;;;4.40;;
19679;SDS011;9989;48.962;9.182;2023-08-06T02:39:42;7.67;;;3.80;;
19679;SDS011;9989;48.962;9.182;2023-08-06T02:42:08;8.73;;;4.27;;
19679;SDS011;9989;48.962;9.182;2023-08-06T02:44:34;8.60;;;3.93;;
19679;SDS011;9989;48.962;9.182;2023-08-06T02:47:00;7.10;;;3.80;;
19679;SDS011;9989;48.962;9.182;2023-08-06T02:49:26;8.27;;;4.00;;
19679;SDS011;9989;48.962;9.182;2023-08-06T02:51:52;7.83;;;4.20;;
19679;SDS011;9989;48.962;9.182;2023-08-06T02:54:18;7.13;;;3.63;;
19679;SDS011;9989;48.962;9.182;2023-08-06T02:56:47;8.77;;;4.63;;
19679;SDS011;9989;48.962;9.182;2023-08-06T02:59:13;8.10;;;4.47;;
19679;SDS011;9989;48.962;9.182;2023-08-06T03:01:38;18.73;;;4.17;;
19679;SDS011;9989;48.962;9.182;2023-08-06T03:04:04;9.00;;;4.07;;
19679;SDS011;9989;48.962;9.182;2023-08-06T03:06:30;7.43;;;3.50;;
19679;SDS011;9989;48.962;9.182;2023-08-06T03:08:56;7.83;;;4.00;;
19679;SDS011;9989;48.962;9.182;2023-08-06T03:11:22;7.00;;;3.37;;
19679;SDS011;9989;48.962;9.182;2023-08-06T03:13:48;8.17;;;4.10;;
19679;SDS011;9989;48.962;9.182;2023-08-06T03:16:14;8.00;;;3.90;;
19679;SDS011;9989;48.962;9.182;2023-08-06T03:18:39;6.80;;;3.40;;
19679;SDS011;9989;48.962;9.182;2023-08-06T03:21:05;6.33;;;2.97;;
19679;SDS011;9989;48.962;9.182;2023-08-06T03:23:31;8.70;;;3.20;;
19679;SDS011;9989;48.962;9.182;2023-08-06T03:26:03;5.97;;;2.93;;
19679;SDS011;9989;48.962;9.182;2023-08-06T03:28:29;7.87;;;3.33;;
19679;SDS011;9989;48.962;9.182;2023-08-06T03:31:04;6.67;;;3.10;;
19679;SDS011;9989;48.962;9.182;2023-08-06T03:33:29;5.73;;;2.80;;
19679;SDS011;9989;48.962;9.182;2023-08-06T03:35:56;6.57;;;3.10;;
19679;SDS011;9989;48.962;9.182;2023-08-06T03:38:21;6.10;;;2.67;;
19679;SDS011;9989;48.962;9.182;2023-08-06T03:40:48;6.67;;;2.90;;
19679;SDS011;9989;48.962;9.182;2023-08-06T03:43:14;6.43;;;3.00;;
19679;SDS011;9989;48.962;9.182;2023-08-06T03:45:40;6.33;;;2.77;;
19679;SDS011;9989;48.962;9.182;2023-08-06T03:48:06;7.27;;;2.70;;
19679;SDS011;9989;48.962;9.182;2023-08-06T03:50:32;5.93;;;2.70;;
19679;SDS011;9989;48.962;9.182;2023-08-06T03:52:57;6.00;;;2.70;;
19679;SDS011;9989;48.962;9.182;2023-08-06T03:55:23;6.47;;;3.03;;
19679;SDS011;9989;48.962;9.182;2023-08-06T03:57:49;5.63;;;2.60;;
19679;SDS011;9989;48.962;9.182;2023-08-06T04:00:14;6.53;;;2.70;;
19679;SDS011;9989;48.962;9.182;2023-08-06T04:02:40;10.17;;;3.03;;
19679;SDS011;9989;48.962;9.182;2023-08-06T04:05:06;5.57;;;2.73;;
19679;SDS011;9989;48.962;9.182;2023-08-06T04:07:32;6.37;;;2.93;;
19679;SDS011;9989;48.962;9.182;2023-08-06T04:09:58;6.83;;;2.77;;
19679;SDS011;9989;48.962;9.182;2023-08-06T04:12:26;6.80;;;2.37;;
19679;SDS011;9989;48.962;9.182;2023-08-06T04:14:52;5.83;;;2.70;;
19679;SDS011;9989;48.962;9.182;2023-08-06T04:17:19;6.93;;;3.10;;
19679;SDS011;9989;48.962;9.182;2023-08-06T04:19:49;6.17;;;2.70;;
19679;SDS011;9989;48.962;9.182;2023-08-06T04:22:16;5.80;;;2.80;;
19679;SDS011;9989;48.962;9.182;2023-08-06T04:24:42;5.90;;;2.60;;
19679;SDS011;9989;48.962;9.182;2023-08-06T04:27:08;5.83;;;2.70;;
19679;SDS011;9989;48.962;9.182;2023-08-06T04:29:34;5.93;;;2.50;;
19679;SDS011;9989;48.962;9.182;2023-08-06T04:32:00;6.20;;;2.80;;
19679;SDS011;9989;48.962;9.182;2023-08-06T04:34:26;6.37;;;2.60;;
19679;SDS011;9989;48.962;9.182;2023-08-06T04:36:52;6.57;;;2.93;;
19679;SDS011;9989;48.962;9.182;2023-08-06T04:39:18;6.30;;;2.77;;
19679;SDS011;9989;48.962;9.182;2023-08-06T04:41:43;5.07;;;2.23;;
19679;SDS011;9989;48.962;9.182;2023-08-06T04:44:09;5.70;;;2.97;;
19679;SDS011;9989;48.962;9.182;2023-08-06T04:46:35;6.13;;;2.63;;
19679;SDS011;9989;48.962;9.182;2023-08-06T04:49:00;5.67;;;2.27;;
19679;SDS011;9989;48.962;9.182;2023-08-06T04:51:26;6.03;;;2.27;;
19679;SDS011;9989;48.962;9.182;2023-08-06T04:53:52;5.70;;;2.37;;
19679;SDS011;9989;48.962;9.182;2023-08-06T04:56:17;6.63;;;2.03;;
19679;SDS011;9989;48.962;9.182;2023-08-06T04:58:43;6.73;;;2.40;;
19679;SDS011;9989;48.962;9.182;2023-08-06T05:01:09;5.93;;;1.80;;
19679;SDS011;9989;48.962;9.182;2023-08-06T05:03:34;4.13;;;1.60;;
19679;SDS011;9989;48.962;9.182;2023-08-06T05:06:00;3.67;;;1.50;;
19679;SDS011;9989;48.962;9.182;2023-08-06T05:08:26;3.57;;;1.47;;
19679;SDS011;9989;48.962;9.182;2023-08-06T05:10:51;4.37;;;1.60;;
19679;SDS011;9989;48.962;9.182;2023-08-06T05:13:17;5.30;;;2.20;;
19679;SDS011;9989;48.962;9.182;2023-08-06T05:15:43;5.33;;;2.00;;
19679;SDS011;9989;48.962;9.182;2023-08-06T05:18:10;3.97;;;1.57;;
19679;SDS011;9989;48.962;9.182;2023-08-06T05:20:37;4.27;;;1.70;;
19679;SDS011;9989;48.962;9.182;2023-08-06T05:23:03;3.20;;;1.33;;
19679;SDS011;9989;48.962;9.182;2023-08-06T05:25:29;4.43;;;1.50;;
19679;SDS011;9989;48.962;9.182;2023-08-06T05:27:55;3.83;;;1.30;;
19679;SDS011;9989;48.962;9.182;2023-08-06T05:30:21;4.73;;;1.50;;
19679;SDS011;9989;48.962;9.182;2023-08-06T05:32:46;3.70;;;1.27;;
19679;SDS011;9989;48.962;9.182;2023-08-06T05:35:12;2.37;;;1.23;;
19679;SDS011;9989;48.962;9.182;2023-08-06T05:37:38;3.83;;;1.23;;
19679;SDS011;9989;48.962;9.182;2023-08-06T05:40:03;3.30;;;1.30;;
19679;SDS011;9989;48.962;9.182;2023-08-06T05:42:30;3.67;;;1.40;;
19679;SDS011;9989;48.962;9.182;2023-08-06T05:44:55;3.27;;;1.20;;
19679;SDS011;9989;48.962;9.182;2023-08-06T05:47:21;5.47;;;1.40;;
19679;SDS011;9989;48.962;9.182;2023-08-06T05:49:47;3.83;;;1.17;;
19679;SDS011;9989;48.962;9.182;2023-08-06T05:52:12;3.50;;;1.40;;
19679;SDS011;9989;48.962;9.182;2023-08-06T05:54:38;3.07;;;1.33;;
19679;SDS011;9989;48.962;9.182;2023-08-06T05:57:05;4.67;;;1.20;;
19679;SDS011;9989;48.962;9.182;2023-08-06T05:59:31;2.57;;;1.10;;
19679;SDS011;9989;48.962;9.182;2023-08-06T06:01:57;3.00;;;1.20;;
19679;SDS011;9989;48.962;9.182;2023-08-06T06:04:22;6.13;;;1.43;;
19679;SDS011;9989;48.962;9.182;2023-08-06T06:06:50;2.80;;;1.20;;
19679;SDS011;9989;48.962;9.182;2023-08-06T06:09:16;2.40;;;1.23;;
19679;SDS011;9989;48.962;9.182;2023-08-06T06:11:41;3.67;;;1.17;;
19679;SDS011;9989;48.962;9.182;2023-08-06T06:14:07;2.30;;;1.17;;
19679;SDS011;9989;48.962;9.182;2023-08-06T06:16:33;3.07;;;1.10;;
19679;SDS011;9989;48.962;9.182;2023-08-06T06:18:59;2.93;;;1.40;;
19679;SDS011;9989;48.962;9.182;2023-08-06T06:21:24;2.53;;;1.17;;
19679;SDS011;9989;48.962;9.182;2023-08-06T06:23:50;3.77;;;1.40;;
19679;SDS011;9989;48.962;9.182;2023-08-06T06:26:18;4.73;;;1.50;;
19679;SDS011;9989;48.962;9.182;2023-08-06T06:28:44;7.93;;;2.60;;
19679;SDS011;9989;48.962;9.182;2023-08-06T06:31:10;8.37;;;3.33;;
19679;SDS011;9989;48.962;9.182;2023-08-06T06:33:36;4.37;;;1.50;;
19679;SDS011;9989;48.962;9.182;2023-08-06T06:36:01;3.43;;;1.40;;
19679;SDS011;9989;48.962;9.182;2023-08-06T06:38:28;2.40;;;1.23;;
19679;SDS011;9989;48.962;9.182;2023-08-06T06:40:55;3.00;;;1.17;;
19679;SDS011;9989;48.962;9.182;2023-08-06T06:43:23;3.87;;;1.20;;
19679;SDS011;9989;48.962;9.182;2023-08-06T06:45:53;2.20;;;1.10;;
19679;SDS011;9989;48.962;9.182;2023-08-06T06:48:20;2.33;;;1.10;;
19679;SDS011;9989;48.962;9.182;2023-08-06T06:50:47;3.00;;;1.13;;
19679;SDS011;9989;48.962;9.182;2023-08-06T06:53:13;3.33;;;1.23;;
19679;SDS011;9989;48.962;9.182;2023-08-06T06:55:39;2.70;;;1.20;;
19679;SDS011;9989;48.962;9.182;2023-08-06T06:58:05;2.60;;;1.10;;
19679;SDS011;9989;48.962;9.182;2023-08-06T07:00:30;7.53;;;1.70;;
19679;SDS011;9989;48.962;9.182;2023-08-06T07:02:56;3.40;;;1.20;;
19679;SDS011;9989;48.962;9.182;2023-08-06T07:05:22;4.57;;;1.50;;
19679;SDS011;9989;48.962;9.182;2023-08-06T07:07:47;10.00;;;1.50;;
19679;SDS011;9989;48.962;9.182;2023-08-06T07:10:13;2.80;;;1.20;;
19679;SDS011;9989;48.962;9.182;2023-08-06T07:12:39;5.00;;;1.20;;
19679;SDS011;9989;48.962;9.182;2023-08-06T07:15:05;2.47;;;1.10;;
19679;SDS011;9989;48.962;9.182;2023-08-06T07:17:31;4.13;;;1.03;;
19679;SDS011;9989;48.962;9.182;2023-08-06T07:19:57;1.53;;;0.83;;
19679;SDS011;9989;48.962;9.182;2023-08-06T07:22:23;3.03;;;1.07;;
19679;SDS011;9989;48.962;9.182;2023-08-06T07:24:49;2.53;;;1.10;;
19679;SDS011;9989;48.962;9.182;2023-08-06T07:27:14;1.57;;;0.90;;
19679;SDS011;9989;48.962;9.182;2023-08-06T07:29:40;2.70;;;0.83;;
19679;SDS011;9989;48.962;9.182;2023-08-06T07:32:06;2.13;;;0.93;;
19679;SDS011;9989;48.962;9.182;2023-08-06T07:34:32;2.93;;;0.80;;
19679;SDS011;9989;48.962;9.182;2023-08-06T07:36:58;2.03;;;1.00;;
19679;SDS011;9989;48.962;9.182;2023-08-06T07:39:24;3.33;;;0.90;;
19679;SDS011;9989;48.962;9.182;2023-08-06T07:41:50;1.83;;;0.73;;
19679;SDS011;9989;48.962;9.182;2023-08-06T07:44:16;1.47;;;0.83;;
19679;SDS011;9989;48.962;9.182;2023-08-06T07:46:41;3.20;;;1.13;;
19679;SDS011;9989;48.962;9.182;2023-08-06T07:49:08;0.90;;;0.60;;
19679;SDS011;9989;48.962;9.182;2023-08-06T07:51:35;2.17;;;0.77;;
19679;SDS011;9989;48.962;9.182;2023-08-06T07:54:01;1.43;;;0.70;;
19679;SDS011;9989;48.962;9.182;2023-08-06T07:56:28;6.00;;;1.27;;
19679;SDS011;9989;48.962;9.182;2023-08-06T07:58:53;0.50;;;0.50;;
19679;SDS011;9989;48.962;9.182;2023-08-06T08:01:19;3.10;;;0.60;;
19679;SDS011;9989;48.962;9.182;2023-08-06T08:03:45;1.53;;;0.60;;
19679;SDS011;9989;48.962;9.182;2023-08-06T08:06:11;1.13;;;0.67;;
19679;SDS011;9989;48.962;9.182;2023-08-06T08:08:36;1.57;;;0.70;;
19679;SDS011;9989;48.962;9.182;2023-08-06T08:11:03;1.37;;;0.50;;
19679;SDS011;9989;48.962;9.182;2023-08-06T08:13:30;0.60;;;0.50;;
19679;SDS011;9989;48.962;9.182;2023-08-06T08:15:57;2.37;;;0.50;;
19679;SDS011;9989;48.962;9.182;2023-08-06T08:18:23;1.40;;;0.90;;
19679;SDS011;9989;48.962;9.182;2023-08-06T08:20:49;0.50;;;0.50;;
19679;SDS011;9989;48.962;9.182;2023-08-06T08:23:15;2.20;;;0.67;;
19679;SDS011;9989;48.962;9.182;2023-08-06T08:25:41;1.40;;;0.60;;
19679;SDS011;9989;48.962;9.182;2023-08-06T08:28:06;0.83;;;0.50;;
19679;SDS011;9989;48.962;9.182;2023-08-06T08:30:32;1.00;;;0.60;;
19679;SDS011;9989;48.962;9.182;2023-08-06T08:32:58;1.37;;;0.50;;
19679;SDS011;9989;48.962;9.182;2023-08-06T08:35:24;0.60;;;0.50;;
19679;SDS011;9989;48.962;9.182;2023-08-06T08:37:49;0.83;;;0.40;;
19679;SDS011;9989;48.962;9.182;2023-08-06T08:40:16;1.70;;;0.50;;
19679;SDS011;9989;48.962;9.182;2023-08-06T08:42:42;0.70;;;0.50;;
19679;SDS011;9989;48.962;9.182;2023-08-06T08:45:14;0.50;;;0.50;;
19679;SDS011;9989;48.962;9.182;2023-08-06T08:47:41;1.07;;;0.60;;
19679;SDS011;9989;48.962;9.182;2023-08-06T08:50:11;0.57;;;0.40;;
19679;SDS011;9989;48.962;9.182;2023-08-06T08:52:39;0.40;;;0.40;;
19679;SDS011;9989;48.962;9.182;2023-08-06T08:55:06;0.50;;;0.50;;
19679;SDS011;9989;48.962;9.182;2023-08-06T08:57:33;0.30;;;0.30;;
19679;SDS011;9989;48.962;9.182;2023-08-06T08:59:59;1.13;;;0.70;;
19679;SDS011;9989;48.962;9.182;2023-08-06T09:02:25;0.47;;;0.33;;
19679;SDS011;9989;48.962;9.182;2023-08-06T09:04:55;0.47;;;0.30;;
19679;SDS011;9989;48.962;9.182;2023-08-06T09:07:24;0.73;;;0.50;;
19679;SDS011;9989;48.962;9.182;2023-08-06T09:09:51;0.40;;;0.40;;
19679;SDS011;9989;48.962;9.182;2023-08-06T09:12:18;0.30;;;0.30;;
19679;SDS011;9989;48.962;9.182;2023-08-06T09:14:44;2.33;;;0.60;;
19679;SDS011;9989;48.962;9.182;2023-08-06T09:17:09;0.43;;;0.43;;
19679;SDS011;9989;48.962;9.182;2023-08-06T09:19:36;0.67;;;0.50;;
19679;SDS011;9989;48.962;9.182;2023-08-06T09:22:01;1.13;;;0.50;;
19679;SDS011;9989;48.962;9.182;2023-08-06T09:24:27;0.40;;;0.40;;
19679;SDS011;9989;48.962;9.182;2023-08-06T09:26:53;0.40;;;0.40;;
19679;SDS011;9989;48.962;9.182;2023-08-06T09:29:19;1.80;;;0.40;;
19679;SDS011;9989;48.962;9.182;2023-08-06T09:34:17;1.13;;;0.30;;
19679;SDS011;9989;48.962;9.182;2023-08-06T09:36:50;0.43;;;0.40;;
19679;SDS011;9989;48.962;9.182;2023-08-06T09:39:38;0.40;;;0.40;;
19679;SDS011;9989;48.962;9.182;2023-08-06T09:42:03;3.80;;;0.70;;
19679;SDS011;9989;48.962;9.182;2023-08-06T09:44:31;0.60;;;0.40;;
19679;SDS011;9989;48.962;9.182;2023-08-06T09:46:58;0.80;;;0.60;;
19679;SDS011;9989;48.962;9.182;2023-08-06T09:52:10;0.40;;;0.40;;
19679;SDS011;9989;48.962;9.182;2023-08-06T09:54:41;1.20;;;0.40;;
19679;SDS011;9989;48.962;9.182;2023-08-06T09:57:09;5.90;;;0.70;;
19679;SDS011;9989;48.962;9.182;2023-08-06T09:59:37;0.73;;;0.50;;
19679;SDS011;9989;48.962;9.182;2023-08-06T10:02:07;1.50;;;0.50;;
19679;SDS011;9989;48.962;9.182;2023-08-06T10:04:38;0.40;;;0.40;;
19679;SDS011;9989;48.962;9.182;2023-08-06T10:07:04;0.50;;;0.50;;
19679;SDS011;9989;48.962;9.182;2023-08-06T10:09:30;0.60;;;0.50;;
19679;SDS011;9989;48.962;9.182;2023-08-06T10:11:56;0.20;;;0.20;;
19679;SDS011;9989;48.962;9.182;2023-08-06T10:14:25;0.53;;;0.30;;
19679;SDS011;9989;48.962;9.182;2023-08-06T10:16:59;0.50;;;0.50;;
19679;SDS011;9989;48.962;9.182;2023-08-06T10:19:26;1.23;;;0.50;;
19679;SDS011;9989;48.962;9.182;2023-08-06T10:22:09;2.20;;;0.50;;
19679;SDS011;9989;48.962;9.182;2023-08-06T10:27:29;0.30;;;0.30;;
19679;SDS011;9989;48.962;9.182;2023-08-06T10:32:59;0.40;;;0.40;;
19679;SDS011;9989;48.962;9.182;2023-08-06T10:35:36;0.73;;;0.50;;
19679;SDS011;9989;48.962;9.182;2023-08-06T10:40:32;0.47;;;0.47;;
19679;SDS011;9989;48.962;9.182;2023-08-06T10:42:59;0.57;;;0.50;;
19679;SDS011;9989;48.962;9.182;2023-08-06T10:45:26;0.60;;;0.50;;
19679;SDS011;9989;48.962;9.182;2023-08-06T10:47:54;1.27;;;0.50;;
19679;SDS011;9989;48.962;9.182;2023-08-06T10:50:23;1.23;;;0.60;;
19679;SDS011;9989;48.962;9.182;2023-08-06T10:52:49;0.60;;;0.50;;
19679;SDS011;9989;48.962;9.182;2023-08-06T10:55:49;0.93;;;0.70;;
19679;SDS011;9989;48.962;9.182;2023-08-06T10:58:07;5.80;;;0.60;;
19679;SDS011;9989;48.962;9.182;2023-08-06T11:00:33;0.90;;;0.80;;
19679;SDS011;9989;48.962;9.182;2023-08-06T11:02:59;0.40;;;0.40;;
19679;SDS011;9989;48.962;9.182;2023-08-06T11:05:25;3.10;;;1.10;;
19679;SDS011;9989;48.962;9.182;2023-08-06T11:07:51;4.70;;;0.97;;
19679;SDS011;9989;48.962;9.182;2023-08-06T11:10:17;1.80;;;0.97;;
19679;SDS011;9989;48.962;9.182;2023-08-06T11:12:43;2.33;;;0.90;;
19679;SDS011;9989;48.962;9.182;2023-08-06T11:15:09;3.97;;;1.67;;
19679;SDS011;9989;48.962;9.182;2023-08-06T11:17:36;1.73;;;1.00;;
19679;SDS011;9989;48.962;9.182;2023-08-06T11:20:04;2.60;;;1.10;;
19679;SDS011;9989;48.962;9.182;2023-08-06T11:22:30;2.00;;;0.90;;
19679;SDS011;9989;48.962;9.182;2023-08-06T11:24:57;3.63;;;1.43;;
19679;SDS011;9989;48.962;9.182;2023-08-06T11:27:22;2.67;;;1.10;;
19679;SDS011;9989;48.962;9.182;2023-08-06T11:29:48;3.20;;;1.00;;
19679;SDS011;9989;48.962;9.182;2023-08-06T11:32:14;2.87;;;1.40;;
19679;SDS011;9989;48.962;9.182;2023-08-06T11:34:39;4.00;;;1.33;;
19679;SDS011;9989;48.962;9.182;2023-08-06T11:37:06;2.53;;;1.30;;
19679;SDS011;9989;48.962;9.182;2023-08-06T11:39:35;5.07;;;1.50;;
19679;SDS011;9989;48.962;9.182;2023-08-06T11:42:03;5.27;;;1.60;;
19679;SDS011;9989;48.962;9.182;2023-08-06T11:44:29;3.37;;;1.30;;
19679;SDS011;9989;48.962;9.182;2023-08-06T11:46:57;5.70;;;1.40;;
19679;SDS011;9989;48.962;9.182;2023-08-06T11:52:23;5.17;;;1.60;;
19679;SDS011;9989;48.962;9.182;2023-08-06T11:55:05;3.77;;;1.60;;
19679;SDS011;9989;48.962;9.182;2023-08-06T11:57:36;7.20;;;1.70;;
19679;SDS011;9989;48.962;9.182;2023-08-06T12:00:07;3.97;;;1.60;;
19679;SDS011;9989;48.962;9.182;2023-08-06T12:02:40;4.63;;;1.80;;
19679;SDS011;9989;48.962;9.182;2023-08-06T12:05:10;4.83;;;1.83;;
19679;SDS011;9989;48.962;9.182;2023-08-06T12:07:37;5.07;;;2.00;;
19679;SDS011;9989;48.962;9.182;2023-08-06T12:10:08;3.90;;;1.70;;
19679;SDS011;9989;48.962;9.182;2023-08-06T12:12:34;4.07;;;1.80;;
19679;SDS011;9989;48.962;9.182;2023-08-06T12:15:02;4.40;;;2.00;;
19679;SDS011;9989;48.962;9.182;2023-08-06T12:17:28;4.20;;;1.80;;
19679;SDS011;9989;48.962;9.182;2023-08-06T12:19:54;14.83;;;2.40;;
19679;SDS011;9989;48.962;9.182;2023-08-06T12:22:20;6.17;;;2.20;;
19679;SDS011;9989;48.962;9.182;2023-08-06T12:24:46;5.93;;;2.03;;
19679;SDS011;9989;48.962;9.182;2023-08-06T12:27:12;5.03;;;2.20;;
19679;SDS011;9989;48.962;9.182;2023-08-06T12:29:46;5.97;;;2.70;;
19679;SDS011;9989;48.962;9.182;2023-08-06T12:32:13;6.87;;;2.30;;
19679;SDS011;9989;48.962;9.182;2023-08-06T12:34:40;6.67;;;2.73;;
19679;SDS011;9989;48.962;9.182;2023-08-06T12:37:08;5.83;;;2.40;;
19679;SDS011;9989;48.962;9.182;2023-08-06T12:39:34;5.93;;;2.50;;
19679;SDS011;9989;48.962;9.182;2023-08-06T12:42:01;8.63;;;2.50;;
19679;SDS011;9989;48.962;9.182;2023-08-06T12:44:28;5.17;;;2.47;;
19679;SDS011;9989;48.962;9.182;2023-08-06T12:46:54;8.47;;;2.83;;
19679;SDS011;9989;48.962;9.182;2023-08-06T12:49:20;6.67;;;2.50;;
19679;SDS011;9989;48.962;9.182;2023-08-06T12:51:47;6.50;;;2.47;;
19679;SDS011;9989;48.962;9.182;2023-08-06T12:54:22;7.00;;;2.70;;
19679;SDS011;9989;48.962;9.182;2023-08-06T12:56:48;5.93;;;2.30;;
19679;SDS011;9989;48.962;9.182;2023-08-06T12:59:14;6.07;;;2.53;;
19679;SDS011;9989;48.962;9.182;2023-08-06T13:01:41;5.33;;;2.23;;
19679;SDS011;9989;48.962;9.182;2023-08-06T13:04:07;5.30;;;2.07;;
19679;SDS011;9989;48.962;9.182;2023-08-06T13:06:33;6.07;;;2.20;;
19679;SDS011;9989;48.962;9.182;2023-08-06T13:09:05;3.47;;;1.70;;
19679;SDS011;9989;48.962;9.182;2023-08-06T13:11:32;4.43;;;1.80;;
19679;SDS011;9989;48.962;9.182;2023-08-06T13:14:01;4.67;;;1.90;;
19679;SDS011;9989;48.962;9.182;2023-08-06T13:16:30;5.23;;;2.10;;
19679;SDS011;9989;48.962;9.182;2023-08-06T13:18:56;7.17;;;2.20;;
19679;SDS011;9989;48.962;9.182;2023-08-06T13:21:21;4.90;;;1.70;;
19679;SDS011;9989;48.962;9.182;2023-08-06T13:23:47;3.53;;;1.60;;
19679;SDS011;9989;48.962;9.182;2023-08-06T13:26:13;5.03;;;2.20;;
19679;SDS011;9989;48.962;9.182;2023-08-06T13:28:40;5.57;;;1.70;;
19679;SDS011;9989;48.962;9.182;2023-08-06T13:31:06;4.13;;;1.60;;
19679;SDS011;9989;48.962;9.182;2023-08-06T13:33:32;4.17;;;1.67;;
19679;SDS011;9989;48.962;9.182;2023-08-06T13:35:58;3.73;;;1.87;;
19679;SDS011;9989;48.962;9.182;2023-08-06T13:38:23;4.33;;;1.60;;
19679;SDS011;9989;48.962;9.182;2023-08-06T13:40:49;6.70;;;1.40;;
19679;SDS011;9989;48.962;9.182;2023-08-06T13:43:15;2.73;;;1.40;;
19679;SDS011;9989;48.962;9.182;2023-08-06T13:45:42;1.80;;;1.10;;
19679;SDS011;9989;48.962;9.182;2023-08-06T13:48:07;2.77;;;1.23;;
19679;SDS011;9989;48.962;9.182;2023-08-06T13:50:35;3.17;;;1.33;;
19679;SDS011;9989;48.962;9.182;2023-08-06T13:53:02;3.27;;;1.37;;
19679;SDS011;9989;48.962;9.182;2023-08-06T13:55:28;2.60;;;1.10;;
19679;SDS011;9989;48.962;9.182;2023-08-06T13:57:53;4.23;;;1.33;;
19679;SDS011;9989;48.962;9.182;2023-08-06T14:00:19;2.60;;;1.27;;
19679;SDS011;9989;48.962;9.182;2023-08-06T14:02:45;2.50;;;1.10;;
19679;SDS011;9989;48.962;9.182;2023-08-06T14:05:10;2.20;;;1.00;;
19679;SDS011;9989;48.962;9.182;2023-08-06T14:07:36;2.37;;;1.10;;
19679;SDS011;9989;48.962;9.182;2023-08-06T14:10:02;2.43;;;1.10;;
19679;SDS011;9989;48.962;9.182;2023-08-06T14:12:28;3.33;;;1.10;;
19679;SDS011;9989;48.962;9.182;2023-08-06T14:14:53;2.83;;;1.17;;
19679;SDS011;9989;48.962;9.182;2023-08-06T14:17:19;5.17;;;1.20;;
19679;SDS011;9989;48.962;9.182;2023-08-06T14:19:45;2.87;;;1.10;;
19679;SDS011;9989;48.962;9.182;2023-08-06T14:22:10;2.50;;;1.20;;
19679;SDS011;9989;48.962;9.182;2023-08-06T14:24:36;1.60;;;1.10;;
19679;SDS011;9989;48.962;9.182;2023-08-06T14:27:02;2.63;;;1.03;;
19679;SDS011;9989;48.962;9.182;2023-08-06T14:29:29;2.70;;;1.20;;
19679;SDS011;9989;48.962;9.182;2023-08-06T14:31:55;4.43;;;1.20;;
19679;SDS011;9989;48.962;9.182;2023-08-06T14:34:20;2.97;;;1.30;;
19679;SDS011;9989;48.962;9.182;2023-08-06T14:36:46;3.07;;;1.27;;
19679;SDS011;9989;48.962;9.182;2023-08-06T14:39:12;3.93;;;1.33;;
19679;SDS011;9989;48.962;9.182;2023-08-06T14:41:37;4.30;;;1.30;;
19679;SDS011;9989;48.962;9.182;2023-08-06T14:44:03;3.37;;;1.30;;
19679;SDS011;9989;48.962;9.182;2023-08-06T14:46:29;5.60;;;1.30;;
19679;SDS011;9989;48.962;9.182;2023-08-06T14:48:54;4.43;;;1.70;;
19679;SDS011;9989;48.962;9.182;2023-08-06T14:51:20;4.73;;;1.37;;
19679;SDS011;9989;48.962;9.182;2023-08-06T14:53:46;3.03;;;1.43;;
19679;SDS011;9989;48.962;9.182;2023-08-06T14:56:12;4.93;;;1.60;;
19679;SDS011;9989;48.962;9.182;2023-08-06T14:58:40;5.60;;;1.70;;
19679;SDS011;9989;48.962;9.182;2023-08-06T15:01:06;4.83;;;1.50;;
19679;SDS011;9989;48.962;9.182;2023-08-06T15:03:32;3.03;;;1.50;;
19679;SDS011;9989;48.962;9.182;2023-08-06T15:05:58;5.03;;;1.50;;
19679;SDS011;9989;48.962;9.182;2023-08-06T15:08:24;5.10;;;1.50;;
19679;SDS011;9989;48.962;9.182;2023-08-06T15:10:51;4.63;;;1.50;;
19679;SDS011;9989;48.962;9.182;2023-08-06T15:13:20;2.27;;;1.27;;
19679;SDS011;9989;48.962;9.182;2023-08-06T15:15:46;2.87;;;1.50;;
19679;SDS011;9989;48.962;9.182;2023-08-06T15:18:12;3.80;;;1.37;;